Time;durP1;ratioP1;P1;durP2;ratioP2;P2;SDS_P1;SDS_P2;PMS_P1;PMS_P2;Temp;Humidity;BMP_temperature;BMP_pressure;BME280_temperature;BME280_humidity;BME280_pressure;Samples;Min_cycle;Max_cycle;Signal;HPM_P1;HPM_P2
2022/10/22 00:00:00;;;;;;;10.60;7.03;;;13.40;99.90;;;;;;5022751;28;20462;-39
2022/10/22 00:02:27;;;;;;;9.52;7.72;;;13.40;99.90;;;;;;5030659;28;20136;-38
2022/10/22 00:04:55;;;;;;;10.48;6.70;;;13.40;99.90;;;;;;5025663;28;20049;-39
2022/10/22 00:07:22;;;;;;;11.18;7.20;;;13.30;99.90;;;;;;5031401;28;20132;-39
2022/10/22 00:09:50;;;;;;;14.25;7.82;;;13.30;99.90;;;;;;5031324;28;20458;-39
2022/10/22 00:12:17;;;;;;;17.08;6.50;;;13.30;99.90;;;;;;5014668;28;20053;-39
2022/10/22 00:14:47;;;;;;;14.25;6.47;;;13.30;99.90;;;;;;5012529;28;20462;-39
2022/10/22 00:17:14;;;;;;;11.77;7.18;;;13.30;99.90;;;;;;5031554;28;20107;-39
2022/10/22 00:19:41;;;;;;;13.77;7.03;;;13.20;99.90;;;;;;5018946;28;20080;-39
2022/10/22 00:22:08;;;;;;;8.23;5.70;;;13.20;99.90;;;;;;5032493;28;20107;-38
2022/10/22 00:24:35;;;;;;;13.02;6.03;;;13.20;99.90;;;;;;5030781;28;20056;-39
2022/10/22 00:27:04;;;;;;;12.68;7.13;;;13.20;99.90;;;;;;5031938;28;20107;-39
2022/10/22 00:29:30;;;;;;;8.73;5.63;;;13.10;99.90;;;;;;5004881;28;20055;-39
2022/10/22 00:31:57;;;;;;;14.25;7.22;;;13.10;99.90;;;;;;5005574;28;20119;-39
2022/10/22 00:34:24;;;;;;;13.50;6.75;;;13.10;99.90;;;;;;5013003;28;20123;-39
2022/10/22 00:36:51;;;;;;;9.90;7.35;;;13.00;99.90;;;;;;5019898;28;20046;-39
2022/10/22 00:39:19;;;;;;;16.13;7.10;;;13.00;99.90;;;;;;5017831;28;20077;-39
2022/10/22 00:41:46;;;;;;;15.68;7.47;;;13.00;99.90;;;;;;5019039;28;20584;-39
2022/10/22 00:44:51;;;;;;;12.73;6.63;;;13.00;99.90;;;;;;5028471;28;20088;-38
2022/10/22 00:47:19;;;;;;;14.32;7.18;;;13.00;99.90;;;;;;4998363;28;20099;-39
2022/10/22 00:49:46;;;;;;;15.00;7.07;;;12.90;99.90;;;;;;5008367;28;20505;-39
2022/10/22 00:52:13;;;;;;;11.50;6.43;;;12.90;99.90;;;;;;5028477;28;20174;-39
2022/10/22 00:54:40;;;;;;;18.90;8.55;;;12.90;99.90;;;;;;5011218;28;20076;-39
2022/10/22 00:57:07;;;;;;;10.18;7.93;;;12.90;99.90;;;;;;5011339;28;20050;-39
2022/10/22 00:59:34;;;;;;;15.20;7.93;;;12.90;99.90;;;;;;5020261;28;20069;-39
2022/10/22 01:02:01;;;;;;;15.93;8.30;;;12.80;99.90;;;;;;5014919;28;20497;-39
2022/10/22 01:04:29;;;;;;;11.63;7.50;;;12.80;99.90;;;;;;4999431;28;20107;-39
2022/10/22 01:06:55;;;;;;;14.75;8.43;;;12.80;99.90;;;;;;5015900;28;20092;-39
2022/10/22 01:09:25;;;;;;;16.08;8.55;;;12.80;99.90;;;;;;4998796;28;20433;-39
2022/10/22 01:11:55;;;;;;;15.60;8.40;;;12.80;99.90;;;;;;4991867;28;20045;-39
2022/10/22 01:14:24;;;;;;;16.30;8.52;;;12.80;99.90;;;;;;5010436;28;20096;-39
2022/10/22 01:16:54;;;;;;;16.98;8.02;;;12.80;99.90;;;;;;5026204;28;20076;-39
2022/10/22 01:19:45;;;;;;;20.08;9.02;;;12.80;99.90;;;;;;5008037;28;20049;-39
2022/10/22 01:22:15;;;;;;;16.57;9.13;;;12.80;99.90;;;;;;5021347;28;20046;-39
2022/10/22 01:24:50;;;;;;;19.40;8.68;;;12.80;99.90;;;;;;5011945;28;20073;-39
2022/10/22 01:27:25;;;;;;;15.05;8.65;;;12.80;99.90;;;;;;5029119;28;20061;-39
2022/10/22 01:29:55;;;;;;;17.30;8.57;;;12.80;99.90;;;;;;5008227;28;20065;-39
2022/10/22 01:32:23;;;;;;;23.20;9.07;;;12.80;99.90;;;;;;5023011;28;20107;-39
2022/10/22 01:34:52;;;;;;;15.35;8.52;;;12.80;99.90;;;;;;5002410;28;20045;-39
2022/10/22 01:37:19;;;;;;;16.30;8.70;;;12.80;99.90;;;;;;5027099;28;20080;-39
2022/10/22 01:39:46;;;;;;;13.63;8.10;;;12.80;99.90;;;;;;5027924;28;20045;-39
2022/10/22 01:42:13;;;;;;;16.17;7.82;;;12.80;99.90;;;;;;5017651;28;20049;-39
2022/10/22 01:44:40;;;;;;;12.93;7.93;;;12.80;99.90;;;;;;5012186;28;20501;-39
2022/10/22 01:47:21;;;;;;;13.52;8.82;;;12.80;99.90;;;;;;5028992;28;20129;-39
2022/10/22 01:50:13;;;;;;;17.52;9.68;;;12.80;99.90;;;;;;5022413;28;20463;-39
2022/10/22 01:52:53;;;;;;;14.65;9.93;;;12.70;99.90;;;;;;5017445;28;20045;-39
2022/10/22 01:55:25;;;;;;;18.67;10.20;;;12.70;99.90;;;;;;5004624;28;20085;-39
2022/10/22 01:57:55;;;;;;;20.23;10.30;;;12.70;99.90;;;;;;5023913;28;20124;-39
2022/10/22 02:00:22;;;;;;;22.17;11.15;;;12.80;99.90;;;;;;5026076;28;20073;-40
2022/10/22 02:02:54;;;;;;;18.13;9.60;;;12.80;99.90;;;;;;5017715;28;20049;-39
2022/10/22 02:05:22;;;;;;;16.48;10.43;;;12.80;99.90;;;;;;5018132;28;20566;-38
2022/10/22 02:07:51;;;;;;;19.27;10.48;;;12.80;99.90;;;;;;5014052;28;20119;-39
2022/10/22 02:10:18;;;;;;;14.77;10.48;;;12.80;99.90;;;;;;5001764;28;20137;-39
2022/10/22 02:12:45;;;;;;;20.65;10.95;;;12.80;99.90;;;;;;5027612;28;20131;-39
2022/10/22 02:15:11;;;;;;;18.98;10.32;;;12.80;99.90;;;;;;5028257;28;20087;-39
2022/10/22 02:17:38;;;;;;;19.35;9.90;;;12.80;99.90;;;;;;5020968;28;20099;-39
2022/10/22 02:20:08;;;;;;;18.42;10.77;;;12.80;99.90;;;;;;5029475;28;20095;-38
2022/10/22 02:22:35;;;;;;;16.23;9.85;;;12.80;99.90;;;;;;5028045;28;20665;-39
2022/10/22 02:25:02;;;;;;;20.15;10.32;;;12.80;99.90;;;;;;5007133;28;20057;-39
2022/10/22 02:27:30;;;;;;;21.88;11.00;;;12.80;99.90;;;;;;5008408;28;20053;-39
2022/10/22 02:29:59;;;;;;;19.05;10.07;;;12.80;99.90;;;;;;5007224;28;20074;-39
2022/10/22 02:32:28;;;;;;;13.18;8.98;;;12.80;99.90;;;;;;5010132;28;20054;-39
2022/10/22 02:34:55;;;;;;;15.77;9.50;;;12.70;99.90;;;;;;4996329;28;20398;-40
2022/10/22 02:37:23;;;;;;;15.60;8.80;;;12.80;99.90;;;;;;4993277;28;20593;-39
2022/10/22 02:39:50;;;;;;;17.65;10.15;;;12.70;99.90;;;;;;5009127;28;20054;-39
2022/10/22 02:42:17;;;;;;;23.85;11.43;;;12.70;99.90;;;;;;5011826;28;20136;-39
2022/10/22 02:44:44;;;;;;;16.50;10.50;;;12.70;99.90;;;;;;5024759;28;20128;-39
2022/10/22 02:47:10;;;;;;;20.42;10.43;;;12.70;99.90;;;;;;4988098;28;20057;-39
2022/10/22 02:49:37;;;;;;;16.38;9.68;;;12.70;99.90;;;;;;5005316;28;20046;-39
2022/10/22 02:52:04;;;;;;;20.17;10.57;;;12.70;99.90;;;;;;4979191;28;20057;-39
2022/10/22 02:54:32;;;;;;;20.65;11.20;;;12.70;99.90;;;;;;4995750;28;20092;-39
2022/10/22 02:56:59;;;;;;;19.67;10.50;;;12.70;99.90;;;;;;4982166;28;20125;-41
2022/10/22 02:59:26;;;;;;;17.83;10.55;;;12.70;99.90;;;;;;5013240;28;20438;-39
2022/10/22 03:01:52;;;;;;;14.50;9.95;;;12.70;99.90;;;;;;4989911;28;20085;-39
2022/10/22 03:04:19;;;;;;;18.38;10.82;;;12.70;99.90;;;;;;4999355;28;20502;-39
2022/10/22 03:06:47;;;;;;;20.40;11.50;;;12.70;99.90;;;;;;4979390;28;20497;-40
2022/10/22 03:09:14;;;;;;;19.75;10.55;;;12.60;99.90;;;;;;5007604;28;20046;-39
2022/10/22 03:11:42;;;;;;;17.10;10.30;;;12.60;99.90;;;;;;4989145;28;20128;-39
2022/10/22 03:14:09;;;;;;;18.55;10.88;;;12.60;99.90;;;;;;5008494;28;20049;-39
2022/10/22 03:16:36;;;;;;;20.45;11.80;;;12.60;99.90;;;;;;4994446;28;20085;-39
2022/10/22 03:19:02;;;;;;;23.83;11.52;;;12.60;99.90;;;;;;4993943;28;20088;-39
2022/10/22 03:21:31;;;;;;;17.73;10.10;;;12.50;99.90;;;;;;5013899;28;20085;-39
2022/10/22 03:23:58;;;;;;;22.83;10.95;;;12.50;99.90;;;;;;5001951;28;20929;-39
2022/10/22 03:26:25;;;;;;;17.30;11.30;;;12.50;99.90;;;;;;5004035;28;20145;-40
2022/10/22 03:28:53;;;;;;;18.70;12.07;;;12.60;99.90;;;;;;5006213;28;20112;-39
2022/10/22 03:31:20;;;;;;;19.75;11.98;;;12.50;99.90;;;;;;5011597;28;20089;-39
2022/10/22 03:33:47;;;;;;;19.88;12.20;;;12.60;99.90;;;;;;5013191;28;20082;-40
2022/10/22 03:36:13;;;;;;;18.60;12.73;;;12.60;99.90;;;;;;4993504;28;20061;-39
2022/10/22 03:38:40;;;;;;;18.73;12.27;;;12.60;99.90;;;;;;5012189;28;20077;-39
2022/10/22 03:41:07;;;;;;;24.23;12.52;;;12.50;99.90;;;;;;5008964;28;20100;-39
2022/10/22 03:43:34;;;;;;;21.48;12.48;;;12.60;99.90;;;;;;4991594;28;20132;-39
2022/10/22 03:46:02;;;;;;;20.27;13.00;;;12.50;99.90;;;;;;5009783;28;20050;-39
2022/10/22 03:48:29;;;;;;;19.05;12.52;;;12.50;99.90;;;;;;5003234;28;20133;-39
2022/10/22 03:50:56;;;;;;;19.70;12.77;;;12.50;99.90;;;;;;5011363;28;20077;-39
2022/10/22 03:53:22;;;;;;;16.50;12.05;;;12.50;99.90;;;;;;5012341;28;20134;-39
2022/10/22 03:55:49;;;;;;;19.50;12.23;;;12.50;99.90;;;;;;5010887;28;20132;-39
2022/10/22 03:58:16;;;;;;;20.05;12.63;;;12.60;99.90;;;;;;5005052;28;20548;-39
2022/10/22 04:00:43;;;;;;;21.10;14.20;;;12.50;99.90;;;;;;4988143;28;20054;-39
2022/10/22 04:03:11;;;;;;;21.70;13.88;;;12.50;99.90;;;;;;5008922;28;20054;-39
2022/10/22 04:05:37;;;;;;;22.27;13.02;;;12.50;99.90;;;;;;5012695;28;20041;-39
2022/10/22 04:08:05;;;;;;;22.45;12.50;;;12.50;99.90;;;;;;5001343;28;20121;-39
2022/10/22 04:10:31;;;;;;;20.88;13.18;;;12.50;99.90;;;;;;5011112;28;20042;-38
2022/10/22 04:12:58;;;;;;;20.42;13.85;;;12.50;99.90;;;;;;4991230;28;20131;-39
2022/10/22 04:15:27;;;;;;;27.50;14.07;;;12.40;99.90;;;;;;4989320;28;20045;-39
2022/10/22 04:17:53;;;;;;;20.33;13.27;;;12.40;99.90;;;;;;5006725;28;20050;-39
2022/10/22 04:20:21;;;;;;;21.88;13.80;;;12.40;99.90;;;;;;5008782;28;20132;-39
2022/10/22 04:22:48;;;;;;;22.25;14.23;;;12.40;99.90;;;;;;5010739;28;20100;-38
2022/10/22 04:25:15;;;;;;;26.42;14.90;;;12.40;99.90;;;;;;5012430;28;20058;-38
2022/10/22 04:27:42;;;;;;;29.27;13.60;;;12.40;99.90;;;;;;5030537;28;20038;-39
2022/10/22 04:30:10;;;;;;;21.35;13.13;;;12.40;99.90;;;;;;5003798;28;20475;-39
2022/10/22 04:32:36;;;;;;;26.42;14.27;;;12.40;99.90;;;;;;4997931;28;20084;-39
2022/10/22 04:35:04;;;;;;;19.48;12.93;;;12.40;99.90;;;;;;5009482;28;20481;-38
2022/10/22 04:37:32;;;;;;;23.70;13.82;;;12.40;99.90;;;;;;5009293;28;20045;-38
2022/10/22 04:39:59;;;;;;;23.00;12.75;;;12.40;99.90;;;;;;5028653;28;20045;-39
2022/10/22 04:42:26;;;;;;;22.70;14.60;;;12.40;99.90;;;;;;5003303;28;20057;-39
2022/10/22 04:44:53;;;;;;;24.85;13.55;;;12.40;99.90;;;;;;5012809;28;20053;-39
2022/10/22 04:47:20;;;;;;;22.40;13.85;;;12.40;99.90;;;;;;5023677;28;20095;-39
2022/10/22 04:49:46;;;;;;;20.73;12.45;;;12.40;99.90;;;;;;5007646;28;20085;-39
2022/10/22 04:52:13;;;;;;;25.63;12.50;;;12.40;99.90;;;;;;5019828;28;20144;-39
2022/10/22 04:54:41;;;;;;;21.80;13.70;;;12.40;99.90;;;;;;5005811;28;20382;-39
2022/10/22 04:57:08;;;;;;;23.13;13.38;;;12.40;99.90;;;;;;5027343;28;20107;-38
2022/10/22 04:59:35;;;;;;;22.05;13.35;;;12.40;99.90;;;;;;5028186;28;20141;-38
2022/10/22 05:02:01;;;;;;;21.65;12.00;;;12.40;99.90;;;;;;5020006;28;20128;-39
2022/10/22 05:04:28;;;;;;;22.55;13.95;;;12.40;99.90;;;;;;5028659;28;20140;-39
2022/10/22 05:06:55;;;;;;;26.45;13.80;;;12.30;99.90;;;;;;5030018;28;20107;-39
2022/10/22 05:09:22;;;;;;;23.85;13.75;;;12.30;99.90;;;;;;5006499;28;20053;-38
2022/10/22 05:11:51;;;;;;;20.35;12.60;;;12.40;99.90;;;;;;4996478;28;20096;-39
2022/10/22 05:14:20;;;;;;;20.27;13.60;;;12.40;99.90;;;;;;5019076;28;20141;-39
2022/10/22 05:16:47;;;;;;;20.13;12.95;;;12.30;99.90;;;;;;5006251;28;20089;-40
2022/10/22 05:19:16;;;;;;;25.08;13.13;;;12.40;99.90;;;;;;4999810;28;20405;-40
2022/10/22 05:21:42;;;;;;;20.15;12.63;;;12.20;99.90;;;;;;5019399;28;20128;-39
2022/10/22 05:24:09;;;;;;;23.33;13.05;;;12.40;99.90;;;;;;5012789;28;20077;-39
2022/10/22 05:26:36;;;;;;;25.30;13.88;;;12.40;99.90;;;;;;4998517;28;20132;-39
2022/10/22 05:29:04;;;;;;;23.45;13.45;;;12.40;99.90;;;;;;5005185;28;20486;-39
2022/10/22 05:31:31;;;;;;;24.77;13.55;;;12.40;99.90;;;;;;4992051;28;20097;-39
2022/10/22 05:33:58;;;;;;;21.58;12.68;;;12.40;99.90;;;;;;5007067;28;20053;-40
2022/10/22 05:36:24;;;;;;;22.40;12.60;;;12.40;99.90;;;;;;4989251;28;20605;-39
2022/10/22 05:38:51;;;;;;;25.42;12.70;;;12.40;99.90;;;;;;5010879;28;20078;-39
2022/10/22 05:41:19;;;;;;;23.55;13.07;;;12.40;99.90;;;;;;5010977;28;20358;-41
2022/10/22 05:43:46;;;;;;;24.00;13.18;;;12.40;99.90;;;;;;4991816;28;20482;-39
2022/10/22 05:46:16;;;;;;;21.42;12.32;;;12.40;99.90;;;;;;4998988;28;20112;-40
2022/10/22 05:48:43;;;;;;;20.52;13.18;;;12.40;99.90;;;;;;4993107;28;20107;-40
2022/10/22 05:51:11;;;;;;;25.70;13.85;;;12.40;99.90;;;;;;5011394;28;20061;-40
2022/10/22 05:53:38;;;;;;;27.33;13.07;;;12.50;99.90;;;;;;5003806;28;20108;-39
2022/10/22 05:56:07;;;;;;;22.42;12.25;;;12.50;99.90;;;;;;5008392;28;20050;-40
2022/10/22 05:58:34;;;;;;;24.08;12.23;;;12.50;99.90;;;;;;4996398;28;20506;-42
2022/10/22 06:01:02;;;;;;;26.33;13.70;;;12.50;99.90;;;;;;5002145;28;20064;-41
2022/10/22 06:03:30;;;;;;;24.55;12.43;;;12.50;99.90;;;;;;4996180;28;20045;-40
2022/10/22 06:05:59;;;;;;;22.88;12.48;;;12.60;99.90;;;;;;5013415;28;20116;-43
2022/10/22 06:08:26;;;;;;;22.25;12.43;;;12.60;99.90;;;;;;5002104;28;20046;-40
2022/10/22 06:10:52;;;;;;;22.20;11.43;;;12.60;99.90;;;;;;5011714;28;20128;-40
2022/10/22 06:13:19;;;;;;;17.45;12.10;;;12.60;99.90;;;;;;5012949;28;20077;-40
2022/10/22 06:15:46;;;;;;;20.00;11.68;;;12.60;99.90;;;;;;5010915;28;20088;-40
2022/10/22 06:18:13;;;;;;;18.30;11.30;;;12.60;99.90;;;;;;5012746;28;20493;-40
2022/10/22 06:20:42;;;;;;;20.00;11.52;;;12.60;99.90;;;;;;5010166;28;20128;-41
2022/10/22 06:23:09;;;;;;;22.23;12.32;;;12.60;99.90;;;;;;5002300;28;20517;-40
2022/10/22 06:25:36;;;;;;;20.25;11.73;;;12.70;99.90;;;;;;4990175;28;20089;-41
2022/10/22 06:28:03;;;;;;;20.85;11.40;;;12.70;99.90;;;;;;4996584;28;20050;-39
2022/10/22 06:30:30;;;;;;;18.73;11.77;;;12.70;99.90;;;;;;5004446;28;20041;-39
2022/10/22 06:32:56;;;;;;;20.77;10.70;;;12.70;99.90;;;;;;5005619;28;20124;-41
2022/10/22 06:35:23;;;;;;;20.77;11.13;;;12.70;99.90;;;;;;5011832;28;20081;-40
2022/10/22 06:37:51;;;;;;;19.10;11.13;;;12.70;99.90;;;;;;5012895;28;20054;-40
2022/10/22 06:40:18;;;;;;;25.40;11.50;;;12.80;99.90;;;;;;4994880;28;20050;-40
2022/10/22 06:42:45;;;;;;;19.95;11.15;;;12.80;99.90;;;;;;5010038;28;20096;-41
2022/10/22 06:45:12;;;;;;;20.92;11.23;;;12.80;99.90;;;;;;5001694;28;20485;-41
2022/10/22 06:47:38;;;;;;;24.58;10.43;;;12.80;99.90;;;;;;5013628;28;20287;-40
2022/10/22 06:50:06;;;;;;;19.95;10.65;;;12.80;99.90;;;;;;5014143;28;20049;-40
2022/10/22 06:52:33;;;;;;;22.42;10.43;;;12.80;99.90;;;;;;5012491;28;20042;-41
2022/10/22 06:55:01;;;;;;;17.95;9.52;;;12.80;99.90;;;;;;5007182;28;20096;-40
2022/10/22 06:57:27;;;;;;;22.98;10.73;;;12.90;99.90;;;;;;5010253;28;20445;-40
2022/10/22 06:59:54;;;;;;;25.90;10.50;;;12.90;99.90;;;;;;5012413;28;20042;-41
2022/10/22 07:02:21;;;;;;;22.73;10.30;;;13.00;99.90;;;;;;5011403;28;20554;-40
2022/10/22 07:04:48;;;;;;;22.65;9.88;;;12.90;99.90;;;;;;5011317;28;20132;-42
2022/10/22 07:07:14;;;;;;;23.30;9.70;;;13.00;99.90;;;;;;5008586;28;20082;-40
2022/10/22 07:09:44;;;;;;;21.00;9.02;;;13.00;99.90;;;;;;5002471;28;20105;-41
2022/10/22 07:12:12;;;;;;;20.20;9.25;;;13.00;99.90;;;;;;5007571;28;20056;-41
2022/10/22 07:14:39;;;;;;;18.15;9.48;;;13.10;99.90;;;;;;4990917;28;20057;-40
2022/10/22 07:17:06;;;;;;;31.27;10.90;;;13.10;99.90;;;;;;4992374;28;20165;-40
2022/10/22 07:19:33;;;;;;;18.27;9.02;;;13.20;99.90;;;;;;5011930;28;20564;-40
2022/10/22 07:21:59;;;;;;;21.60;9.32;;;13.20;99.90;;;;;;5010584;28;20517;-39
2022/10/22 07:24:26;;;;;;;21.85;9.23;;;13.20;99.90;;;;;;5011740;28;20077;-42
2022/10/22 07:26:53;;;;;;;23.83;9.52;;;13.30;99.90;;;;;;4989874;28;20055;-40
2022/10/22 07:29:21;;;;;;;21.73;9.13;;;13.30;99.90;;;;;;4999849;28;20077;-40
2022/10/22 07:31:48;;;;;;;21.98;9.18;;;13.40;99.90;;;;;;4991928;28;20077;-40
2022/10/22 07:34:15;;;;;;;20.83;9.35;;;13.40;99.90;;;;;;4974734;28;20076;-46
2022/10/22 07:36:42;;;;;;;18.48;8.27;;;13.40;99.90;;;;;;4991177;28;20096;-41
2022/10/22 07:39:09;;;;;;;17.92;8.50;;;13.50;99.90;;;;;;5002931;28;20093;-41
2022/10/22 07:41:35;;;;;;;22.40;8.07;;;13.50;99.90;;;;;;5017944;28;20042;-40
2022/10/22 07:44:02;;;;;;;21.30;7.80;;;13.60;99.90;;;;;;4998621;28;20455;-41
2022/10/22 07:46:30;;;;;;;25.05;7.80;;;13.60;99.90;;;;;;4996568;28;20137;-42
2022/10/22 07:48:57;;;;;;;16.58;7.30;;;13.70;99.90;;;;;;5003235;28;20576;-40
2022/10/22 07:51:24;;;;;;;24.40;7.35;;;13.70;99.90;;;;;;5023027;28;20561;-41
2022/10/22 07:53:50;;;;;;;14.55;7.22;;;13.80;99.90;;;;;;5002786;28;20447;-40
2022/10/22 07:56:17;;;;;;;17.73;7.90;;;13.80;99.90;;;;;;5006455;28;20124;-41
2022/10/22 07:58:44;;;;;;;23.15;8.30;;;13.80;99.90;;;;;;5013608;28;20089;-40
2022/10/22 08:01:11;;;;;;;15.85;7.35;;;13.80;99.90;;;;;;5023602;28;20077;-42
2022/10/22 08:03:39;;;;;;;22.67;7.65;;;13.80;99.90;;;;;;4994665;28;20495;-40
2022/10/22 08:06:06;;;;;;;19.98;7.22;;;13.80;99.90;;;;;;5030199;28;20084;-40
2022/10/22 08:08:33;;;;;;;26.48;8.18;;;13.90;99.90;;;;;;5019810;28;20137;-41
2022/10/22 08:11:00;;;;;;;17.13;7.68;;;14.00;99.90;;;;;;5029834;28;20084;-40
2022/10/22 08:13:29;;;;;;;22.70;7.18;;;14.10;99.90;;;;;;4998342;28;20082;-40
2022/10/22 08:15:56;;;;;;;15.75;6.93;;;14.10;99.90;;;;;;5009677;28;20052;-39
2022/10/22 08:18:23;;;;;;;21.33;7.65;;;14.10;99.90;;;;;;5016989;28;20099;-40
2022/10/22 08:20:51;;;;;;;19.38;7.28;;;14.20;99.90;;;;;;5025528;28;20092;-45
2022/10/22 08:23:18;;;;;;;15.68;7.13;;;14.20;99.90;;;;;;4991194;28;20054;-40
2022/10/22 08:25:45;;;;;;;16.27;6.70;;;14.30;99.90;;;;;;4989939;28;20081;-40
2022/10/22 08:28:11;;;;;;;16.52;6.32;;;14.30;99.90;;;;;;5012853;28;20084;-40
2022/10/22 08:30:39;;;;;;;17.30;6.45;;;14.40;99.90;;;;;;5007931;28;20453;-43
2022/10/22 08:33:05;;;;;;;22.20;6.43;;;14.50;99.90;;;;;;5015118;28;20516;-40
2022/10/22 08:35:32;;;;;;;22.65;6.22;;;14.70;99.90;;;;;;5002309;28;20516;-40
2022/10/22 08:38:00;;;;;;;15.27;6.80;;;14.70;99.90;;;;;;5022923;28;20549;-42
2022/10/22 08:40:30;;;;;;;14.98;6.57;;;14.80;99.90;;;;;;4991557;28;20144;-40
2022/10/22 08:43:27;;;;;;;21.40;6.95;;;14.90;99.90;;;;;;4994101;28;20107;-40
2022/10/22 08:45:59;;;;;;;15.18;5.72;;;15.00;99.90;;;;;;4982160;28;20093;-40
2022/10/22 08:48:34;;;;;;;20.30;6.00;;;15.10;99.90;;;;;;5020852;28;20049;-40
2022/10/22 08:51:01;;;;;;;13.65;5.55;;;15.10;99.90;;;;;;4992334;28;20124;-40
2022/10/22 08:53:32;;;;;;;15.05;5.70;;;15.20;99.90;;;;;;5026517;28;20080;-41
2022/10/22 08:55:59;;;;;;;18.27;6.55;;;15.30;99.90;;;;;;4988333;28;20078;-40
2022/10/22 08:58:29;;;;;;;15.80;5.18;;;15.30;99.90;;;;;;5009404;28;20138;-40
2022/10/22 09:00:58;;;;;;;15.80;5.18;;;15.40;99.90;;;;;;4994951;28;20140;-40
2022/10/22 09:03:36;;;;;;;17.85;4.80;;;15.50;99.90;;;;;;5024445;28;20076;-40
2022/10/22 09:06:08;;;;;;;17.52;4.78;;;15.50;99.90;;;;;;5030090;28;20077;-41
2022/10/22 09:08:37;;;;;;;13.52;5.18;;;15.60;99.90;;;;;;5015813;28;20088;-39
2022/10/22 09:11:06;;;;;;;17.83;4.88;;;15.70;99.90;;;;;;5029636;28;20510;-40
2022/10/22 09:13:33;;;;;;;18.52;4.47;;;15.80;99.90;;;;;;4996524;28;20636;-39
2022/10/22 09:16:00;;;;;;;17.48;4.85;;;15.80;99.90;;;;;;4995977;28;20077;-40
2022/10/22 09:18:33;;;;;;;12.68;4.07;;;15.80;99.90;;;;;;5011878;28;20481;-39
2022/10/22 09:21:02;;;;;;;14.95;4.18;;;15.80;99.90;;;;;;5001554;28;20085;-39
2022/10/22 09:23:33;;;;;;;17.95;4.50;;;15.80;99.90;;;;;;5004308;28;20399;-40
2022/10/22 09:26:01;;;;;;;15.02;4.60;;;15.80;99.90;;;;;;5006553;28;20065;-40
2022/10/22 09:28:28;;;;;;;13.55;3.97;;;15.80;99.90;;;;;;4993390;28;20054;-39
2022/10/22 09:30:55;;;;;;;16.13;3.92;;;15.80;99.90;;;;;;4993726;28;20147;-39
2022/10/22 09:33:24;;;;;;;18.13;4.28;;;15.80;99.90;;;;;;5009770;28;20137;-41
2022/10/22 09:35:52;;;;;;;16.55;4.70;;;15.80;99.90;;;;;;5003369;28;20077;-39
2022/10/22 09:38:20;;;;;;;19.55;4.88;;;15.80;99.90;;;;;;4994838;28;20046;-41
2022/10/22 09:40:48;;;;;;;19.73;4.65;;;15.80;99.90;;;;;;5004508;28;20463;-39
2022/10/22 09:43:16;;;;;;;14.77;3.80;;;15.90;99.90;;;;;;4997506;28;20061;-39
2022/10/22 09:45:43;;;;;;;17.83;4.28;;;15.80;99.90;;;;;;5011220;28;20077;-39
2022/10/22 09:48:12;;;;;;;17.17;4.38;;;15.80;99.90;;;;;;5000906;28;20136;-39
2022/10/22 09:50:42;;;;;;;16.17;3.97;;;15.80;99.90;;;;;;4987328;28;20074;-39
2022/10/22 09:53:14;;;;;;;18.73;3.80;;;15.90;99.90;;;;;;5007004;28;20046;-39
2022/10/22 09:55:41;;;;;;;17.98;4.30;;;15.90;99.90;;;;;;4997456;28;20072;-39
2022/10/22 09:58:09;;;;;;;16.00;4.10;;;15.90;99.90;;;;;;5009660;28;20085;-39
2022/10/22 10:00:38;;;;;;;18.45;4.30;;;15.80;99.90;;;;;;5005885;28;20145;-39
2022/10/22 10:03:05;;;;;;;13.32;4.40;;;15.90;99.90;;;;;;4992456;28;20140;-39
2022/10/22 10:05:33;;;;;;;18.42;3.70;;;15.80;99.90;;;;;;5002689;28;20149;-39
2022/10/22 10:08:02;;;;;;;19.77;5.15;;;15.90;99.90;;;;;;4983148;28;20050;-39
2022/10/22 10:10:34;;;;;;;19.00;4.40;;;15.80;99.90;;;;;;4992561;28;20559;-38
2022/10/22 10:13:06;;;;;;;15.00;4.53;;;15.90;99.90;;;;;;4993513;28;20048;-38
2022/10/22 10:15:35;;;;;;;;;;;15.90;99.90;;;;;;4992435;28;20568;-40
2022/10/22 10:18:07;;;;;;;18.20;4.93;;;15.90;99.90;;;;;;5003060;28;20278;-38
2022/10/22 10:20:37;;;;;;;17.05;4.63;;;15.90;99.90;;;;;;4990725;28;20100;-40
2022/10/22 10:23:09;;;;;;;17.08;5.10;;;16.00;99.90;;;;;;4990854;28;20050;-39
2022/10/22 10:25:42;;;;;;;17.17;4.43;;;16.00;99.90;;;;;;4989673;28;20100;-41
2022/10/22 10:28:23;;;;;;;17.70;4.90;;;16.00;99.90;;;;;;4988916;28;20056;-39
2022/10/22 10:30:54;;;;;;;15.40;4.38;;;16.10;99.90;;;;;;4993455;28;20046;-39
2022/10/22 10:33:28;;;;;;;15.45;4.88;;;16.30;99.90;;;;;;5009402;28;20058;-38
2022/10/22 10:35:58;;;;;;;17.02;5.03;;;16.30;99.90;;;;;;5008905;28;20084;-41
2022/10/22 10:38:39;;;;;;;19.00;4.82;;;16.40;99.90;;;;;;5008559;28;20104;-39
2022/10/22 10:41:15;;;;;;;14.77;4.47;;;16.50;99.90;;;;;;4988349;28;20048;-39
2022/10/22 10:43:52;;;;;;;22.98;6.05;;;16.50;99.90;;;;;;5008006;28;20510;-39
2022/10/22 10:46:22;;;;;;;16.27;5.50;;;16.50;99.90;;;;;;5005088;28;20589;-39
2022/10/22 10:48:53;;;;;;;16.77;4.70;;;16.50;99.90;;;;;;4993749;28;20046;-39
2022/10/22 10:51:28;;;;;;;15.68;4.95;;;16.50;99.90;;;;;;5011939;28;20058;-39
2022/10/22 10:54:01;;;;;;;15.23;5.13;;;16.50;99.90;;;;;;4995534;28;20089;-42
2022/10/22 10:56:36;;;;;;;16.92;5.30;;;16.50;99.90;;;;;;4993652;28;20061;-40
2022/10/22 10:59:10;;;;;;;14.65;5.10;;;16.50;99.90;;;;;;5011742;28;20100;-38
2022/10/22 11:01:40;;;;;;;16.95;5.63;;;16.40;99.90;;;;;;5012609;28;20085;-41
2022/10/22 11:04:24;;;;;;;15.77;5.43;;;16.40;99.90;;;;;;4991551;28;20057;-39
2022/10/22 11:06:52;;;;;;;19.05;5.88;;;16.40;99.90;;;;;;4991200;28;20065;-41
2022/10/22 11:09:23;;;;;;;20.15;5.68;;;16.40;99.90;;;;;;4993231;28;20136;-38
2022/10/22 11:11:51;;;;;;;13.35;5.68;;;16.40;99.90;;;;;;5008178;28;20052;-39
2022/10/22 11:14:20;;;;;;;14.98;6.28;;;16.40;99.90;;;;;;5011542;28;20133;-38
2022/10/22 11:16:49;;;;;;;14.18;5.18;;;16.40;99.90;;;;;;4996574;28;20558;-39
2022/10/22 11:19:20;;;;;;;17.15;6.38;;;16.40;99.90;;;;;;4996027;28;20054;-40
2022/10/22 11:21:49;;;;;;;16.90;5.72;;;16.40;99.90;;;;;;5006024;28;20081;-39
2022/10/22 11:24:20;;;;;;;19.42;6.20;;;16.40;99.90;;;;;;5003960;28;20475;-38
2022/10/22 11:26:48;;;;;;;16.67;6.05;;;16.40;99.90;;;;;;4997792;28;20054;-39
2022/10/22 11:29:17;;;;;;;15.20;5.40;;;16.30;99.90;;;;;;5015459;28;20128;-40
2022/10/22 11:31:44;;;;;;;20.33;6.40;;;16.40;99.90;;;;;;5021917;28;20137;-38
2022/10/22 11:34:15;;;;;;;26.85;6.47;;;16.40;99.90;;;;;;5028957;28;20060;-40
2022/10/22 11:36:43;;;;;;;;;;;16.50;99.90;;;;;;5009983;28;20144;-38
2022/10/22 11:39:35;;;;;;;16.90;5.18;;;16.50;99.90;;;;;;5022100;28;20023;-39
2022/10/22 11:42:03;;;;;;;18.80;5.47;;;16.50;99.90;;;;;;5010824;28;20052;-39
2022/10/22 11:44:31;;;;;;;18.50;5.22;;;16.60;99.90;;;;;;5011755;28;20053;-39
2022/10/22 11:46:59;;;;;;;17.05;5.57;;;16.70;99.90;;;;;;4991288;28;20125;-38
2022/10/22 11:49:27;;;;;;;13.07;5.20;;;16.90;99.90;;;;;;5011928;28;20061;-39
2022/10/22 11:52:21;;;;;;;15.52;5.53;;;16.90;99.90;;;;;;5000399;28;20046;-38
2022/10/22 11:54:48;;;;;;;15.18;5.10;;;16.90;99.90;;;;;;4986823;28;20394;-40
2022/10/22 11:57:19;;;;;;;18.13;5.20;;;16.90;99.90;;;;;;4996313;28;20085;-38
2022/10/22 11:59:49;;;;;;;13.90;5.03;;;16.80;99.90;;;;;;5012394;28;20050;-38
2022/10/22 12:02:40;;;;;;;14.73;5.60;;;16.80;99.90;;;;;;5006087;28;20125;-40
2022/10/22 12:05:32;;;;;;;13.35;4.80;;;16.80;99.90;;;;;;5030116;28;20046;-39
2022/10/22 12:08:02;;;;;;;15.45;4.20;;;16.80;99.90;;;;;;5024658;28;20545;-39
2022/10/22 12:10:33;;;;;;;16.70;4.90;;;16.80;99.90;;;;;;5024913;28;20474;-39
2022/10/22 12:13:03;;;;;;;21.27;5.88;;;16.80;99.90;;;;;;5017947;28;20068;-38
2022/10/22 12:15:29;;;;;;;13.63;4.40;;;16.80;99.90;;;;;;5005388;28;20136;-38
2022/10/22 12:17:59;;;;;;;16.70;4.03;;;16.80;99.90;;;;;;5030334;28;20558;-38
2022/10/22 12:20:27;;;;;;;16.88;4.10;;;16.90;99.90;;;;;;5007176;28;20054;-40
2022/10/22 12:22:54;;;;;;;16.90;4.10;;;16.90;99.90;;;;;;5027940;28;20045;-39
2022/10/22 12:25:25;;;;;;;16.75;4.47;;;16.90;99.90;;;;;;5013208;28;20088;-39
2022/10/22 12:27:53;;;;;;;18.48;4.95;;;16.80;99.90;;;;;;5009403;28;20054;-39
2022/10/22 12:30:22;;;;;;;19.98;4.50;;;16.80;99.90;;;;;;5013202;28;20136;-38
2022/10/22 12:32:51;;;;;;;17.90;5.20;;;16.80;99.90;;;;;;5012495;28;20046;-38
2022/10/22 12:35:19;;;;;;;16.25;4.80;;;16.70;99.90;;;;;;5013022;28;20054;-40
2022/10/22 12:37:48;;;;;;;14.45;4.40;;;16.70;99.90;;;;;;5012696;28;20077;-39
2022/10/22 12:40:20;;;;;;;14.63;5.10;;;16.60;99.90;;;;;;5013694;28;20489;-39